createdAt,value
2022-09-11T00:03:14.324Z,83.50
2022-09-11T00:06:37.292Z,83.49
2022-09-11T00:09:59.942Z,82.93
2022-09-11T00:13:25.565Z,83.47
2022-09-11T00:16:49.235Z,83.69
2022-09-11T00:20:13.738Z,82.91
2022-09-11T00:23:37.311Z,83.44
2022-09-11T00:27:00.377Z,84.08
2022-09-11T00:30:23.642Z,83.93
2022-09-11T00:33:46.707Z,84.17
2022-09-11T00:37:11.300Z,84.86
2022-09-11T00:40:33.844Z,84.41
2022-09-11T00:44:03.273Z,84.83
2022-09-11T00:47:26.220Z,85.12
2022-09-11T00:50:50.922Z,84.58
2022-09-11T00:54:20.020Z,85.00
2022-09-11T00:57:47.281Z,85.11
2022-09-11T01:01:11.015Z,84.24
2022-09-11T01:04:33.927Z,84.69
2022-09-11T01:07:58.580Z,85.22
2022-09-11T01:11:41.962Z,85.05
2022-09-11T01:15:08.408Z,85.05
2022-09-11T01:18:35.250Z,86.60
2022-09-11T01:22:23.706Z,86.20
2022-09-11T01:26:02.956Z,85.93
2022-09-11T01:29:31.233Z,85.89
2022-09-11T01:33:14.571Z,85.73
2022-09-11T01:36:43.677Z,86.59
2022-09-11T01:40:13.212Z,86.11
2022-09-11T01:43:38.058Z,86.86
2022-09-11T01:47:05.874Z,86.10
2022-09-11T01:50:33.135Z,86.01
2022-09-11T01:54:00.596Z,85.56
2022-09-11T01:57:31.650Z,85.41
2022-09-11T02:01:04.293Z,85.51
2022-09-11T02:04:33.948Z,86.00
2022-09-11T02:07:58.620Z,85.63
2022-09-11T02:11:22.326Z,86.16
2022-09-11T02:14:48.463Z,85.66
2022-09-11T02:18:18.895Z,85.15
2022-09-11T02:21:43.395Z,85.33
2022-09-11T02:25:07.591Z,85.49
2022-09-11T02:28:30.949Z,85.63
2022-09-11T02:31:53.908Z,85.55
2022-09-11T02:35:17.595Z,85.45
2022-09-11T02:38:53.658Z,86.01
2022-09-11T02:42:29.422Z,86.17
2022-09-11T02:46:05.400Z,86.15
2022-09-11T02:49:40.578Z,86.32
2022-09-11T02:53:09.428Z,86.18
2022-09-11T02:56:41.911Z,86.04
2022-09-11T03:00:09.469Z,86.57
2022-09-11T03:03:40.543Z,86.09
2022-09-11T03:07:03.899Z,86.25
2022-09-11T03:10:28.186Z,86.24
2022-09-11T03:13:52.607Z,85.52
2022-09-11T03:17:15.335Z,85.99
2022-09-11T03:20:39.319Z,85.95
2022-09-11T03:24:02.321Z,86.04
2022-09-11T03:27:25.666Z,85.55
2022-09-11T03:30:50.702Z,85.71
2022-09-11T03:34:14.234Z,85.42
2022-09-11T03:37:37.289Z,86.25
2022-09-11T03:41:00.481Z,85.64
2022-09-11T03:44:23.312Z,86.25
2022-09-11T03:47:47.303Z,86.76
2022-09-11T03:51:10.471Z,86.05
2022-09-11T03:54:33.632Z,86.58
2022-09-11T03:57:56.724Z,86.41
2022-09-11T04:01:20.510Z,86.48
2022-09-11T04:04:45.486Z,86.74
2022-09-11T04:08:09.152Z,86.54
2022-09-11T04:11:37.231Z,87.17
2022-09-11T04:15:00.608Z,89.02
2022-09-11T04:18:23.260Z,89.08
2022-09-11T04:21:48.478Z,88.26
2022-09-11T04:25:12.860Z,88.72
2022-09-11T04:28:36.126Z,88.88
2022-09-11T04:31:59.230Z,88.81
2022-09-11T04:35:22.148Z,89.69
2022-09-11T04:38:47.468Z,89.77
2022-09-11T04:42:10.840Z,89.98
2022-09-11T04:45:34.149Z,89.29
2022-09-11T04:48:59.623Z,88.25
2022-09-11T04:52:22.542Z,89.05
2022-09-11T04:55:46.663Z,88.62
2022-09-11T04:59:13.833Z,88.06
2022-09-11T05:02:36.683Z,86.97
2022-09-11T05:05:59.436Z,87.17
2022-09-11T05:09:22.399Z,86.49
2022-09-11T05:12:46.380Z,86.07
2022-09-11T05:16:10.694Z,85.30
2022-09-11T05:19:33.431Z,84.75
2022-09-11T05:22:56.699Z,84.27
2022-09-11T05:26:20.684Z,83.87
2022-09-11T05:29:45.284Z,83.01
2022-09-11T05:33:09.369Z,82.40
2022-09-11T05:36:36.425Z,82.04
2022-09-11T05:39:59.709Z,82.28
2022-09-11T05:43:22.850Z,80.48
2022-09-11T05:46:47.657Z,79.89
2022-09-11T05:50:11.641Z,79.58
2022-09-11T05:53:34.616Z,78.01
2022-09-11T05:56:57.658Z,77.61
2022-09-11T06:00:21.139Z,77.28
2022-09-11T06:03:47.982Z,76.59
2022-09-11T06:07:10.840Z,76.00
2022-09-11T06:10:34.009Z,75.34
2022-09-11T06:13:57.687Z,75.72
2022-09-11T06:17:20.845Z,74.21
2022-09-11T06:20:45.443Z,74.00
2022-09-11T06:24:08.714Z,74.23
2022-09-11T06:27:31.368Z,74.58
2022-09-11T06:30:54.441Z,73.47
2022-09-11T06:34:17.391Z,73.10
2022-09-11T06:37:41.677Z,72.84
2022-09-11T06:41:05.158Z,72.61
2022-09-11T06:44:28.521Z,72.40
2022-09-11T06:47:51.387Z,70.92
2022-09-11T06:51:15.670Z,69.83
2022-09-11T06:54:40.274Z,69.96
2022-09-11T06:58:04.161Z,68.86
2022-09-11T07:01:27.571Z,69.21
2022-09-11T07:04:50.534Z,68.21
2022-09-11T07:08:13.129Z,66.70
2022-09-11T07:11:38.965Z,67.70
2022-09-11T07:15:02.331Z,66.24
2022-09-11T07:18:25.186Z,65.16
2022-09-11T07:21:48.540Z,64.56
2022-09-11T07:25:11.720Z,63.85
2022-09-11T07:28:37.961Z,63.70
2022-09-11T07:32:01.024Z,61.84
2022-09-11T07:35:24.493Z,62.73
2022-09-11T07:38:49.008Z,61.31
2022-09-11T07:42:11.956Z,59.54
2022-09-11T07:45:37.385Z,61.16
2022-09-11T07:49:02.369Z,61.94
2022-09-11T07:52:25.743Z,58.43
2022-09-11T07:55:48.918Z,57.84
2022-09-11T07:59:12.175Z,56.35
2022-09-11T08:02:37.541Z,58.15
2022-09-11T08:06:01.690Z,57.14
2022-09-11T08:09:28.322Z,56.03
2022-09-11T08:12:51.493Z,54.31
2022-09-11T08:16:14.586Z,53.67
2022-09-11T08:19:39.356Z,53.35
2022-09-11T08:23:02.115Z,52.89
2022-09-11T08:26:26.709Z,50.79
2022-09-11T08:29:49.362Z,51.67
2022-09-11T08:33:14.673Z,50.37
2022-09-11T08:36:38.861Z,51.41
2022-09-11T08:40:02.613Z,49.09
2022-09-11T08:43:28.671Z,50.66
2022-09-11T08:46:59.724Z,49.78
2022-09-11T08:50:26.269Z,49.78
2022-09-11T08:53:52.092Z,48.75
2022-09-11T08:57:21.400Z,48.50
2022-09-11T09:00:48.873Z,48.24
2022-09-11T09:04:47.876Z,45.92
2022-09-11T09:08:18.101Z,46.32
2022-09-11T09:11:54.570Z,47.32
2022-09-11T09:15:31.783Z,47.34
2022-09-11T09:19:02.105Z,46.31
2022-09-11T09:22:36.569Z,45.83
2022-09-11T09:25:59.705Z,47.78
2022-09-11T09:29:26.349Z,45.19
2022-09-11T09:32:53.574Z,45.38
2022-09-11T09:36:21.685Z,45.39
2022-09-11T09:39:45.391Z,44.19
2022-09-11T09:43:40.944Z,44.16
2022-09-11T09:47:06.415Z,44.00
2022-09-11T09:50:33.364Z,43.91
2022-09-11T09:54:01.762Z,45.07
2022-09-11T09:57:28.592Z,45.08
2022-09-11T10:00:51.597Z,43.58
2022-09-11T10:04:20.358Z,44.00
2022-09-11T10:07:48.133Z,42.76
2022-09-11T10:11:13.961Z,44.10
2022-09-11T10:14:52.921Z,44.97
2022-09-11T10:18:40.654Z,43.44
2022-09-11T10:22:26.324Z,43.88
2022-09-11T10:25:52.460Z,44.06
2022-09-11T10:29:19.621Z,42.25
2022-09-11T10:32:44.589Z,43.30
2022-09-11T10:36:11.172Z,43.02
2022-09-11T10:39:38.689Z,41.73
2022-09-11T10:43:01.599Z,43.17
2022-09-11T10:46:42.593Z,41.93
2022-09-11T10:50:27.553Z,41.33
2022-09-11T10:54:01.263Z,41.10
2022-09-11T10:57:31.909Z,43.38
2022-09-11T11:00:55.189Z,42.33
2022-09-11T11:04:18.604Z,42.67
2022-09-11T11:08:03.723Z,40.69
2022-09-11T11:11:40.925Z,40.67
2022-09-11T11:15:34.936Z,41.11
2022-09-11T11:19:11.585Z,41.18
2022-09-11T11:22:58.715Z,41.21
2022-09-11T11:26:38.601Z,41.07
2022-09-11T11:30:18.328Z,41.11
2022-09-11T11:34:03.919Z,41.97
2022-09-11T11:37:32.303Z,41.36
2022-09-11T11:41:01.811Z,42.43
2022-09-11T11:44:34.096Z,42.33
2022-09-11T11:47:57.768Z,41.61
2022-09-11T11:51:26.373Z,41.89
2022-09-11T11:54:54.746Z,42.08
2022-09-11T11:58:29.391Z,41.90
2022-09-11T12:02:00.166Z,39.50
2022-09-11T12:05:26.166Z,39.75
2022-09-11T12:08:52.292Z,39.31
2022-09-11T12:12:16.808Z,39.97
2022-09-11T12:15:40.058Z,41.31
2022-09-11T12:19:06.493Z,42.47
2022-09-11T12:22:39.800Z,40.92
2022-09-11T12:26:18.736Z,39.31
2022-09-11T12:29:55.207Z,39.55
2022-09-11T12:33:54.735Z,39.04
2022-09-11T12:37:33.458Z,38.88
2022-09-11T12:41:02.470Z,40.18
2022-09-11T12:44:34.534Z,40.34
2022-09-11T12:48:04.466Z,39.74
2022-09-11T12:51:30.797Z,40.46
2022-09-11T12:54:54.784Z,39.70
2022-09-11T12:58:28.828Z,40.47
2022-09-11T13:01:55.524Z,41.02
2022-09-11T13:05:21.792Z,40.95
2022-09-11T13:08:51.301Z,39.50
2022-09-11T13:12:54.668Z,40.40
2022-09-11T13:16:26.163Z,40.55
2022-09-11T13:19:51.579Z,41.12
2022-09-11T13:23:20.483Z,42.02
2022-09-11T13:26:43.958Z,42.29
2022-09-11T13:30:09.271Z,42.59
2022-09-11T13:33:34.455Z,41.41
2022-09-11T13:37:00.346Z,42.38
2022-09-11T13:40:27.770Z,42.60
2022-09-11T13:43:57.991Z,41.98
2022-09-11T13:47:30.383Z,42.17
2022-09-11T13:50:54.268Z,43.11
2022-09-11T13:54:29.000Z,43.04
2022-09-11T13:57:55.459Z,41.78
2022-09-11T14:01:19.861Z,42.59
2022-09-11T14:04:44.637Z,42.92
2022-09-11T14:08:24.133Z,42.36
2022-09-11T14:11:49.511Z,43.20
2022-09-11T14:15:22.811Z,41.09
2022-09-11T14:18:48.652Z,42.09
2022-09-11T14:22:18.145Z,41.95
2022-09-11T14:25:41.007Z,42.62
2022-09-11T14:29:08.884Z,41.19
2022-09-11T14:32:34.299Z,41.53
2022-09-11T14:36:07.793Z,42.29
2022-09-11T14:39:35.392Z,42.35
2022-09-11T14:42:58.848Z,42.32
2022-09-11T14:51:16.820Z,42.75
2022-09-11T14:54:40.876Z,42.09
2022-09-11T14:58:04.384Z,42.56
2022-09-11T15:01:27.702Z,43.08
2022-09-11T15:04:51.225Z,43.45
2022-09-11T15:08:16.228Z,42.49
2022-09-11T15:11:39.806Z,43.09
2022-09-11T15:15:04.156Z,43.28
2022-09-11T15:18:29.818Z,43.84
2022-09-11T15:21:52.777Z,44.25
2022-09-11T15:25:17.280Z,43.33
2022-09-11T15:28:43.844Z,44.08
2022-09-11T15:32:08.115Z,44.35
2022-09-11T15:35:38.859Z,44.05
2022-09-11T15:39:03.868Z,44.36
2022-09-11T15:42:28.358Z,44.95
2022-09-11T15:45:51.654Z,44.81
2022-09-11T15:49:14.281Z,44.99
2022-09-11T15:52:38.775Z,45.42
2022-09-11T15:56:07.064Z,45.74
2022-09-11T15:59:32.382Z,46.17
2022-09-11T16:02:56.867Z,46.43
2022-09-11T16:06:19.832Z,46.44
2022-09-11T16:09:43.676Z,46.67
2022-09-11T16:13:06.754Z,46.93
2022-09-11T16:16:31.469Z,47.12
2022-09-11T16:19:54.431Z,46.92
2022-09-11T16:23:18.008Z,47.25
2022-09-11T16:26:42.193Z,47.54
2022-09-11T16:30:42.134Z,47.80
2022-09-11T16:33:50.666Z,48.22
2022-09-11T16:37:13.806Z,48.69
2022-09-11T16:40:37.596Z,48.85
2022-09-11T16:44:03.313Z,49.13
2022-09-11T16:47:26.586Z,49.15
2022-09-11T16:50:55.786Z,49.86
2022-09-11T16:54:19.357Z,49.53
2022-09-11T16:57:44.674Z,50.01
2022-09-11T17:01:08.701Z,50.00
2022-09-11T17:04:31.688Z,50.68
2022-09-11T17:07:56.113Z,50.69
2022-09-11T17:11:20.411Z,51.30
2022-09-11T17:14:43.670Z,50.84
2022-09-11T17:18:06.532Z,51.71
2022-09-11T17:21:30.414Z,52.01
2022-09-11T17:24:55.018Z,52.04
2022-09-11T17:28:20.537Z,52.64
2022-09-11T17:31:43.314Z,52.82
2022-09-11T17:35:06.856Z,52.77
2022-09-11T17:38:30.430Z,52.92
2022-09-11T17:41:55.137Z,54.00
2022-09-11T17:45:29.360Z,53.74
2022-09-11T17:48:52.629Z,53.76
2022-09-11T17:52:15.889Z,54.05
2022-09-11T17:55:39.674Z,54.58
2022-09-11T17:59:03.661Z,54.63
2022-09-11T18:02:27.022Z,55.26
2022-09-11T18:05:49.886Z,55.34
2022-09-11T18:09:16.840Z,55.85
2022-09-11T18:12:39.692Z,56.16
2022-09-11T18:16:08.521Z,57.52
2022-09-11T18:19:33.296Z,56.71
2022-09-11T18:22:56.661Z,57.14
2022-09-11T18:26:24.849Z,58.01
2022-09-11T18:29:50.331Z,57.36
2022-09-11T18:33:16.911Z,58.88
2022-09-11T18:36:40.486Z,58.52
2022-09-11T18:40:03.715Z,58.49
2022-09-11T18:43:27.226Z,59.66
2022-09-11T18:46:55.517Z,58.50
2022-09-11T18:50:20.212Z,58.69
2022-09-11T18:58:32.050Z,60.11
2022-09-11T19:01:55.519Z,59.77
2022-09-11T19:05:20.221Z,60.71
2022-09-11T19:08:44.920Z,60.72
2022-09-11T19:12:08.692Z,60.58
2022-09-11T19:15:31.856Z,61.55
2022-09-11T19:18:55.728Z,61.06
2022-09-11T19:22:23.414Z,60.91
2022-09-11T19:25:49.543Z,61.01
2022-09-11T19:29:13.728Z,61.53
2022-09-11T19:32:40.282Z,61.84
2022-09-11T19:36:12.728Z,62.09
2022-09-11T19:39:37.760Z,62.22
2022-09-11T19:43:00.419Z,62.54
2022-09-11T19:46:26.070Z,63.12
2022-09-11T19:49:52.175Z,63.21
2022-09-11T19:53:15.654Z,63.30
2022-09-11T19:56:41.381Z,63.93
2022-09-11T20:00:05.056Z,63.47
2022-09-11T20:03:27.906Z,64.24
2022-09-11T20:10:12.188Z,64.70
2022-09-11T20:13:37.204Z,65.20
2022-09-11T20:17:01.320Z,64.96
2022-09-11T20:20:24.863Z,65.46
2022-09-11T20:23:48.860Z,65.46
2022-09-11T20:27:14.873Z,65.35
2022-09-11T20:30:40.608Z,66.14
2022-09-11T20:34:04.581Z,66.70
2022-09-11T20:37:27.547Z,66.62
2022-09-11T20:40:50.744Z,67.50
2022-09-11T20:44:14.177Z,67.76
2022-09-11T20:47:38.674Z,68.13
2022-09-11T20:51:04.139Z,69.16
2022-09-11T20:54:27.871Z,69.71
2022-09-11T20:57:50.939Z,69.57
2022-09-11T21:01:16.815Z,69.65
2022-09-11T21:04:41.466Z,69.70
2022-09-11T21:08:05.147Z,70.65
2022-09-11T21:11:29.959Z,69.94
2022-09-11T21:14:53.208Z,70.76
2022-09-11T21:18:19.240Z,71.18
2022-09-11T21:21:43.633Z,72.20
2022-09-11T21:25:07.317Z,72.30
2022-09-11T21:28:31.296Z,71.88
2022-09-11T21:31:54.150Z,72.96
2022-09-11T21:35:17.314Z,73.34
2022-09-11T21:38:41.611Z,73.43
2022-09-11T21:42:04.717Z,73.86
2022-09-11T21:45:29.476Z,73.53
2022-09-11T21:48:52.740Z,73.58
2022-09-11T21:52:15.390Z,74.10
2022-09-11T21:55:41.941Z,73.49
2022-09-11T21:59:04.490Z,74.24
2022-09-11T22:02:28.473Z,74.80
2022-09-11T22:05:51.740Z,74.45
2022-09-11T22:09:14.398Z,74.32
2022-09-11T22:12:38.690Z,73.87
2022-09-11T22:16:01.958Z,75.36
2022-09-11T22:19:25.115Z,75.14
2022-09-11T22:22:49.203Z,74.98
2022-09-11T22:26:14.724Z,76.21
2022-09-11T22:29:46.397Z,75.05
2022-09-11T22:33:10.777Z,75.57
2022-09-11T22:36:34.457Z,77.26
2022-09-11T22:39:56.931Z,75.83
2022-09-11T22:43:20.378Z,75.89
2022-09-11T22:46:48.662Z,77.35
2022-09-11T22:50:12.129Z,76.58
2022-09-11T22:53:35.041Z,77.20
2022-09-11T22:56:58.262Z,77.30
2022-09-11T23:00:21.417Z,77.68
2022-09-11T23:03:45.921Z,77.77
2022-09-11T23:07:16.559Z,77.36
2022-09-11T23:10:43.519Z,78.33
2022-09-11T23:14:10.486Z,78.44
2022-09-11T23:17:36.902Z,78.11
2022-09-11T23:21:00.891Z,78.40
2022-09-11T23:24:23.640Z,78.34
2022-09-11T23:27:47.072Z,78.31
2022-09-11T23:31:15.953Z,78.50
2022-09-11T23:34:38.609Z,78.97
2022-09-11T23:38:03.681Z,78.70
2022-09-11T23:41:26.638Z,78.83
2022-09-11T23:44:49.756Z,79.30
2022-09-11T23:48:12.561Z,79.55
2022-09-11T23:51:35.516Z,80.17
2022-09-11T23:54:59.912Z,79.11
2022-09-11T23:58:23.275Z,81.32
